Etusivu
METAR-TAF:

METAR-TAF

Lentoasemat :

Wahpeton, Pohjois-Dakota, Yhdysvallat

Leveyspiiri: 46-14-39N, Pituuspiiri: 096-36-26W, korkeus merenpinnasta: 295 m

Tämänhetkinen sää

Tämä raportti tehtiin 24 minuuttia sitten, kello 10.35 UTC
Tuuli 5 kn lännestä/luoteesta
Lämpötila -24°C
Kosteus 76%
Ilmanpaine 1037 hPa
Näkyvyys: 16.1 km

METAR: KBWP 191035Z AUTO 29005KT 10SM M24/M27 A3063 RMK AO1

Aika: 04:59 (10:59 UTC)


TAF: puuttuu

Säähavainnot ja -ennusteet yli 4000 lentoasemalta (METAR- ja TAF-raportit).

Käytössä olevat sääasemat on merkitty karttaan keltaisilla ja punaisilla pisteillä.

Aseta hiiri pisteen päälle nähdäksesi sääaseman nimen.

Klikkaa sitten nähdäksesi säähavainnot ja -ennusteet.

Kartan vaihtaminen: klikkaa mustalla rastilla varustettuja vihreitä pisteitä, niin voit zoomata sisään; viivalla varustettua vihreää pistettä, niin voit zoomata ulos tai vihreitä nuolia, niin pääset viereisille kartoille.


METAR-TAF: